createdAt,value
2023-09-08T00:02:23.164Z,100015.23
2023-09-08T00:05:15.767Z,100010.66
2023-09-08T00:08:08.914Z,100012.79
2023-09-08T00:11:01.915Z,100014.03
2023-09-08T00:13:54.730Z,100008.77
2023-09-08T00:16:49.727Z,100008.60
2023-09-08T00:19:42.955Z,100007.89
2023-09-08T00:22:37.413Z,100009.46
2023-09-08T00:25:30.270Z,100007.00
2023-09-08T00:28:23.024Z,100010.52
2023-09-08T00:31:15.651Z,100013.72
2023-09-08T00:34:09.529Z,100016.73
2023-09-08T00:37:26.056Z,100018.86
2023-09-08T00:40:19.087Z,100021.84
2023-09-08T00:43:13.548Z,100022.55
2023-09-08T00:46:06.526Z,100023.08
2023-09-08T00:49:01.885Z,100018.84
2023-09-08T00:51:55.156Z,100019.55
2023-09-08T00:54:48.939Z,100021.67
2023-09-08T00:57:41.764Z,100017.30
2023-09-08T01:00:35.049Z,100015.36
2023-09-08T01:03:16.555Z,100014.49
2023-09-08T01:06:10.283Z,100011.34
2023-09-08T01:09:03.857Z,100010.79
2023-09-08T01:12:01.912Z,100006.58
2023-09-08T01:14:54.693Z,100002.88
2023-09-08T01:17:27.649Z,100003.78
2023-09-08T01:20:26.077Z,100003.98
2023-09-08T01:23:30.669Z,100006.27
2023-09-08T01:26:28.139Z,100005.55
2023-09-08T01:29:21.852Z,100004.33
2023-09-08T01:32:15.903Z,100002.05
2023-09-08T01:35:09.932Z,99999.78
2023-09-08T01:38:02.620Z,99997.84
2023-09-08T01:40:55.302Z,99996.27
2023-09-08T01:43:50.207Z,99997.51
2023-09-08T01:46:43.053Z,99998.92
2023-09-08T01:49:38.139Z,100003.84
2023-09-08T01:52:31.105Z,100002.26
2023-09-08T01:55:23.729Z,99997.85
2023-09-08T01:58:16.535Z,100001.36
2023-09-08T02:01:07.401Z,100002.60
2023-09-08T02:04:00.247Z,100005.60
2023-09-08T02:06:54.301Z,100007.02
2023-09-08T02:09:47.360Z,100003.33
2023-09-08T02:12:43.656Z,100000.33
2023-09-08T02:15:38.907Z,99997.52
2023-09-08T02:18:32.173Z,99999.10
2023-09-08T02:21:24.976Z,100001.58
2023-09-08T02:24:20.048Z,100002.63
2023-09-08T02:27:12.757Z,99999.46
2023-09-08T02:30:07.759Z,99995.44
2023-09-08T02:33:00.537Z,99993.33
2023-09-08T02:35:54.251Z,99995.60
2023-09-08T02:38:47.032Z,99994.20
2023-09-08T02:41:42.539Z,99992.98
2023-09-08T02:44:36.052Z,99989.30
2023-09-08T02:47:30.004Z,99989.11
2023-09-08T02:50:23.324Z,99984.33
2023-09-08T02:53:16.090Z,99988.18
2023-09-08T02:56:10.550Z,99990.83
2023-09-08T02:59:03.238Z,99984.86
2023-09-08T03:01:56.037Z,99977.48
2023-09-08T03:04:49.604Z,99973.97
2023-09-08T03:07:42.341Z,99974.65
2023-09-08T03:10:37.583Z,99981.69
2023-09-08T03:13:13.532Z,99981.16
2023-09-08T03:16:10.625Z,99984.33
2023-09-08T03:19:03.560Z,99981.88
2023-09-08T03:21:56.322Z,99979.05
2023-09-08T03:24:42.706Z,99974.13
2023-09-08T03:27:34.033Z,99974.48
2023-09-08T03:30:29.850Z,99979.05
2023-09-08T03:33:22.750Z,99970.95
2023-09-08T03:36:16.634Z,99971.65
2023-09-08T03:39:11.007Z,99973.06
2023-09-08T03:42:03.994Z,99971.14
2023-09-08T03:44:56.745Z,99970.58
2023-09-08T03:47:49.494Z,99971.98
2023-09-08T03:50:43.369Z,99969.17
2023-09-08T03:53:36.923Z,99970.05
2023-09-08T03:56:22.812Z,99963.91
2023-09-08T03:59:16.180Z,99967.41
2023-09-08T04:02:09.012Z,99964.43
2023-09-08T04:05:02.293Z,99964.61
2023-09-08T04:07:55.332Z,99964.44
2023-09-08T04:10:48.471Z,99964.44
2023-09-08T04:13:41.152Z,99969.19
2023-09-08T04:16:34.828Z,99969.38
2023-09-08T04:19:28.044Z,99967.44
2023-09-08T04:22:21.584Z,99968.85
2023-09-08T04:25:15.548Z,99965.88
2023-09-08T04:28:10.001Z,99966.05
2023-09-08T04:31:03.411Z,99964.64
2023-09-08T04:33:57.584Z,99969.04
2023-09-08T04:36:50.220Z,99967.83
2023-09-08T04:39:43.242Z,99961.15
2023-09-08T04:42:36.239Z,99962.02
2023-09-08T04:45:29.351Z,99959.36
2023-09-08T04:48:15.442Z,99956.87
2023-09-08T04:51:08.809Z,99956.47
2023-09-08T04:54:01.440Z,99958.54
2023-09-08T04:56:57.031Z,99956.55
2023-09-08T04:59:56.983Z,99958.23
2023-09-08T05:02:50.175Z,99960.44
2023-09-08T05:05:35.825Z,99960.55
2023-09-08T05:08:28.573Z,99960.98
2023-09-08T05:11:21.461Z,99959.63
2023-09-08T05:14:14.610Z,99961.07
2023-09-08T05:17:07.757Z,99960.40
2023-09-08T05:19:56.309Z,99959.25
2023-09-08T05:22:49.047Z,99960.90
2023-09-08T05:25:43.980Z,99966.27
2023-09-08T05:28:39.404Z,99967.43
2023-09-08T05:31:34.209Z,99964.52
2023-09-08T05:34:26.932Z,99967.08
2023-09-08T05:37:19.699Z,99966.27
2023-09-08T05:40:13.498Z,99960.14
2023-09-08T05:43:07.827Z,99958.59
2023-09-08T05:46:00.689Z,99957.42
2023-09-08T05:48:53.555Z,99955.03
2023-09-08T05:51:46.507Z,99955.45
2023-09-08T05:54:40.110Z,99955.50
2023-09-08T05:57:32.831Z,99962.42
2023-09-08T06:00:25.614Z,99962.81
2023-09-08T06:03:18.401Z,99964.77
2023-09-08T06:06:12.542Z,99966.63
2023-09-08T06:09:09.099Z,99969.16
2023-09-08T06:11:55.196Z,99968.36
2023-09-08T06:14:48.395Z,99967.18
2023-09-08T06:17:35.560Z,99967.58
2023-09-08T06:20:29.263Z,99967.76
2023-09-08T06:23:25.838Z,99974.23
2023-09-08T06:26:18.176Z,99974.11
2023-09-08T06:29:11.180Z,99975.08
2023-09-08T06:32:04.040Z,99975.23
2023-09-08T06:34:56.786Z,99978.70
2023-09-08T06:37:49.588Z,99975.08
2023-09-08T06:40:42.674Z,99973.19
2023-09-08T06:43:35.253Z,99976.76
2023-09-08T06:46:28.226Z,99972.98
2023-09-08T06:49:21.375Z,99969.73
2023-09-08T06:52:14.482Z,99966.82
2023-09-08T06:55:08.139Z,99969.05
2023-09-08T06:58:00.867Z,99963.33
2023-09-08T07:00:55.786Z,99959.27
2023-09-08T07:03:49.149Z,99962.52
2023-09-08T07:06:43.076Z,99968.23
2023-09-08T07:09:36.846Z,99966.27
2023-09-08T07:12:29.669Z,99968.85
2023-09-08T07:15:22.262Z,99966.46
2023-09-08T07:18:15.333Z,99967.02
2023-09-08T07:21:08.370Z,99966.99
2023-09-08T07:24:01.792Z,99961.33
2023-09-08T07:26:56.431Z,99966.14
2023-09-08T07:29:50.795Z,99963.44
2023-09-08T07:32:44.032Z,99960.17
2023-09-08T07:35:38.507Z,99955.75
2023-09-08T07:38:31.433Z,99957.63
2023-09-08T07:41:24.822Z,99957.58
2023-09-08T07:44:17.752Z,99954.60
2023-09-08T07:46:59.631Z,99957.69
2023-09-08T07:49:52.412Z,99958.19
2023-09-08T07:52:35.328Z,99954.06
2023-09-08T07:55:30.067Z,99955.02
2023-09-08T07:58:23.954Z,99955.83
2023-09-08T08:01:17.308Z,99952.66
2023-09-08T08:04:10.604Z,99952.80
2023-09-08T08:07:03.514Z,99951.42
2023-09-08T08:09:56.578Z,99956.90
2023-09-08T08:12:49.463Z,99964.88
2023-09-08T08:15:23.638Z,99959.20
2023-09-08T08:18:16.808Z,99960.94
2023-09-08T08:21:09.480Z,99964.59
2023-09-08T08:24:01.303Z,99960.73
2023-09-08T08:26:54.292Z,99960.21
2023-09-08T08:29:46.909Z,99957.03
2023-09-08T08:32:39.432Z,99959.30
2023-09-08T08:35:25.736Z,99956.20
2023-09-08T08:38:18.500Z,99950.87
2023-09-08T08:41:11.275Z,99951.83
2023-09-08T08:44:04.446Z,99950.59
2023-09-08T08:46:58.160Z,99950.88
2023-09-08T08:49:50.833Z,99952.23
2023-09-08T08:52:43.130Z,99946.51
2023-09-08T08:55:36.682Z,99944.50
2023-09-08T08:58:30.233Z,99943.14
2023-09-08T09:01:23.439Z,99941.30
2023-09-08T09:04:16.865Z,99936.48
2023-09-08T09:07:10.313Z,99932.67
2023-09-08T09:10:01.817Z,99934.60
2023-09-08T09:12:54.844Z,99933.17
2023-09-08T09:15:48.254Z,99930.14
2023-09-08T09:18:59.878Z,99926.96
2023-09-08T09:21:52.608Z,99922.81
2023-09-08T09:24:46.497Z,99923.29
2023-09-08T09:27:38.991Z,99917.81
2023-09-08T09:30:25.883Z,99914.43
2023-09-08T09:33:09.356Z,99912.69
2023-09-08T09:36:02.174Z,99906.19
2023-09-08T09:39:00.157Z,99908.10
2023-09-08T09:41:55.732Z,99905.55
2023-09-08T09:44:49.139Z,99907.19
2023-09-08T09:47:40.887Z,99902.76
2023-09-08T09:50:35.534Z,99902.75
2023-09-08T09:53:27.682Z,99899.95
2023-09-08T09:56:22.849Z,99903.86
2023-09-08T09:59:16.898Z,99897.89
2023-09-08T10:02:14.835Z,99896.39
2023-09-08T10:05:16.547Z,99896.92
2023-09-08T10:08:11.668Z,99893.86
2023-09-08T10:11:02.367Z,99889.09
2023-09-08T10:13:49.194Z,99890.39
2023-09-08T10:16:45.601Z,99889.84
2023-09-08T10:19:44.245Z,99890.95
2023-09-08T11:20:32.614Z,99847.55
2023-09-08T11:23:06.407Z,99846.84
2023-09-08T11:25:39.355Z,99842.33
2023-09-08T11:28:24.135Z,99841.04
2023-09-08T11:30:58.549Z,99838.64
2023-09-08T11:33:42.598Z,99838.88
2023-09-08T11:36:20.035Z,99836.20
2023-09-08T11:38:52.799Z,99836.45
2023-09-08T11:41:30.426Z,99836.30
2023-09-08T11:44:08.728Z,99833.23
2023-09-08T11:46:42.879Z,99828.67
2023-09-08T11:49:24.159Z,99825.19
2023-09-08T11:51:58.470Z,99822.67
2023-09-08T11:54:51.962Z,99819.52
2023-09-08T11:57:38.307Z,99818.62
2023-09-08T12:00:17.181Z,99818.63
2023-09-08T12:02:52.687Z,99817.48
2023-09-08T12:05:52.863Z,99815.37
2023-09-08T12:08:30.509Z,99809.73
2023-09-08T12:11:03.260Z,99809.36
2023-09-08T12:13:38.558Z,99804.13
2023-09-08T12:16:23.537Z,99804.59
2023-09-08T12:18:56.369Z,99800.99
2023-09-08T12:21:29.040Z,99799.08
2023-09-08T12:24:04.777Z,99795.87
2023-09-08T12:26:40.039Z,99794.01
2023-09-08T12:29:17.756Z,99796.35
2023-09-08T12:31:50.157Z,99794.46
2023-09-08T12:34:25.302Z,99786.14
2023-09-08T12:37:00.688Z,99785.67
2023-09-08T12:39:33.207Z,99783.83
2023-09-08T12:42:08.764Z,99781.66
2023-09-08T12:44:42.893Z,99778.35
2023-09-08T12:47:15.802Z,99777.44
2023-09-08T12:49:51.537Z,99774.02
2023-09-08T12:52:27.259Z,99771.30
2023-09-08T12:55:00.817Z,99770.69
2023-09-08T12:57:33.318Z,99774.77
2023-09-08T13:00:08.604Z,99771.35
2023-09-08T13:02:42.779Z,99768.92
2023-09-08T13:05:15.573Z,99765.92
2023-09-08T13:07:48.365Z,99766.23
2023-09-08T13:10:21.385Z,99762.25
2023-09-08T13:12:54.307Z,99758.04
2023-09-08T13:15:37.586Z,99758.04
2023-09-08T13:18:10.424Z,99755.02
2023-09-08T13:20:43.022Z,99752.20
2023-09-08T13:23:16.006Z,99752.19
2023-09-08T13:25:53.045Z,99747.78
2023-09-08T13:28:28.097Z,99747.52
2023-09-08T13:31:00.985Z,99745.52
2023-09-08T13:33:37.384Z,99746.48
2023-09-08T13:36:12.218Z,99742.96
2023-09-08T13:38:46.647Z,99742.51
2023-09-08T13:41:19.592Z,99742.05
2023-09-08T13:43:52.261Z,99739.92
2023-09-08T13:46:27.980Z,99739.76
2023-09-08T13:49:05.027Z,99733.09
2023-09-08T13:51:42.552Z,99726.98
2023-09-08T13:54:18.199Z,99729.27
2023-09-08T13:57:03.357Z,99718.41
2023-09-08T13:59:42.456Z,99719.25
2023-09-08T14:02:39.784Z,99716.55
2023-09-08T14:05:11.215Z,99716.85
2023-09-08T14:07:46.746Z,99715.64
2023-09-08T14:13:00.085Z,99712.25
2023-09-08T14:15:34.599Z,99713.25
2023-09-08T14:18:07.859Z,99711.62
2023-09-08T14:20:40.440Z,99712.79
2023-09-08T14:23:13.063Z,99710.66
2023-09-08T14:25:48.149Z,99708.85
2023-09-08T14:28:35.051Z,99707.57
2023-09-08T14:31:08.451Z,99705.00
2023-09-08T14:33:41.394Z,99702.75
2023-09-08T14:36:18.830Z,99705.17
2023-09-08T14:38:49.788Z,99702.65
2023-09-08T14:41:25.276Z,99695.91
2023-09-08T14:44:00.744Z,99692.46
2023-09-08T14:46:36.276Z,99694.66
2023-09-08T14:49:20.169Z,99686.10
2023-09-08T14:51:52.866Z,99687.41
2023-09-08T14:54:27.563Z,99683.05
2023-09-08T14:57:20.321Z,99680.86
2023-09-08T14:59:58.315Z,99681.90
2023-09-08T15:02:34.489Z,99680.36
2023-09-08T15:05:07.884Z,99676.98
2023-09-08T15:07:43.246Z,99676.81
2023-09-08T15:10:15.859Z,99675.08
2023-09-08T15:12:51.406Z,99671.06
2023-09-08T15:15:26.949Z,99663.22
2023-09-08T15:18:23.796Z,99664.27
2023-09-08T15:20:59.160Z,99665.02
2023-09-08T15:23:35.376Z,99662.60
2023-09-08T15:26:22.395Z,99657.60
2023-09-08T15:29:16.433Z,99655.16
2023-09-08T15:31:59.720Z,99654.34
2023-09-08T15:34:44.510Z,99652.64
2023-09-08T15:37:30.399Z,99656.33
2023-09-08T15:40:15.640Z,99651.58
2023-09-08T15:42:50.263Z,99654.92
2023-09-08T15:45:34.491Z,99647.81
2023-09-08T15:48:09.962Z,99646.88
2023-09-08T15:50:42.617Z,99646.63
2023-09-08T15:53:18.225Z,99646.02
2023-09-08T15:55:50.957Z,99642.95
2023-09-08T15:58:27.550Z,99637.36
2023-09-08T16:01:10.486Z,99636.92
2023-09-08T16:03:46.543Z,99636.30
2023-09-08T16:06:25.699Z,99633.15
2023-09-08T16:08:58.137Z,99629.05
2023-09-08T16:11:41.144Z,99629.45
2023-09-08T16:14:16.262Z,99623.75
2023-09-08T16:16:48.903Z,99624.59
2023-09-08T16:19:24.784Z,99619.70
2023-09-08T16:22:09.092Z,99619.44
2023-09-08T16:24:51.890Z,99617.35
2023-09-08T16:27:35.023Z,99612.77
2023-09-08T16:30:18.181Z,99613.00
2023-09-08T16:33:11.118Z,99613.89
2023-09-08T16:36:06.262Z,99613.51
2023-09-08T16:38:41.295Z,99613.05
2023-09-08T16:41:17.182Z,99618.95
2023-09-08T16:43:55.207Z,99617.89
2023-09-08T16:46:31.048Z,99622.39
2023-09-08T16:49:03.827Z,99622.37
2023-09-08T16:51:36.570Z,99624.83
2023-09-08T16:54:13.500Z,99627.70
2023-09-08T16:56:57.398Z,99629.83
2023-09-08T16:59:30.562Z,99628.99
2023-09-08T17:02:13.862Z,99634.63
2023-09-08T17:04:47.414Z,99632.46
2023-09-08T17:07:20.255Z,99629.44
2023-09-08T17:09:56.227Z,99633.34
2023-09-08T17:12:29.912Z,99630.52
2023-09-08T17:15:06.671Z,99633.45
2023-09-08T17:17:39.573Z,99638.79
2023-09-08T17:20:26.047Z,99639.69
2023-09-08T17:23:02.489Z,99639.99
2023-09-08T17:25:34.982Z,99639.75
2023-09-08T17:28:07.938Z,99641.70
2023-09-08T17:30:41.906Z,99638.83
2023-09-08T17:33:16.912Z,99640.56
2023-09-08T17:35:52.092Z,99647.39
2023-09-08T17:38:27.439Z,99644.07
2023-09-08T17:41:10.245Z,99652.63
2023-09-08T17:43:46.729Z,99652.92
2023-09-08T17:46:19.525Z,99648.09
2023-09-08T17:48:55.496Z,99654.29
2023-09-08T17:51:27.778Z,99655.26
2023-09-08T17:54:00.732Z,99651.98
2023-09-08T17:56:33.304Z,99655.76
2023-09-08T17:59:06.338Z,99657.02
2023-09-08T18:01:40.247Z,99658.96
2023-09-08T18:04:23.032Z,99657.93
2023-09-08T18:06:57.931Z,99653.66
2023-09-08T18:09:41.045Z,99655.09
2023-09-08T18:12:34.514Z,99654.04
2023-09-08T18:15:13.344Z,99656.98
2023-09-08T18:17:48.637Z,99654.28
2023-09-08T18:20:21.933Z,99651.55
2023-09-08T18:22:55.875Z,99649.34
2023-09-08T18:25:28.749Z,99651.70
2023-09-08T18:28:01.585Z,99653.90
2023-09-08T18:30:34.468Z,99654.60
2023-09-08T18:33:07.602Z,99657.84
2023-09-08T18:35:41.431Z,99657.00
2023-09-08T18:38:15.119Z,99654.55
2023-09-08T18:40:50.431Z,99656.55
2023-09-08T18:43:22.991Z,99656.22
2023-09-08T18:45:55.705Z,99655.17
2023-09-08T18:48:31.720Z,99654.63
2023-09-08T18:51:04.718Z,99647.75
2023-09-08T18:53:39.391Z,99650.55
2023-09-08T18:56:12.521Z,99650.54
2023-09-08T18:58:48.484Z,99648.56
2023-09-08T19:01:21.255Z,99648.38
2023-09-08T19:03:53.978Z,99651.91
2023-09-08T19:06:26.513Z,99655.23
2023-09-08T19:08:59.634Z,99655.00
2023-09-08T19:11:33.960Z,99652.85
2023-09-08T19:14:08.461Z,99657.22
2023-09-08T19:16:41.090Z,99657.87
2023-09-08T19:19:19.223Z,99661.20
2023-09-08T19:21:51.760Z,99658.48
2023-09-08T19:24:25.725Z,99660.21
2023-09-08T19:26:58.504Z,99659.08
2023-09-08T19:29:32.831Z,99662.37
2023-09-08T19:32:06.846Z,99659.14
2023-09-08T19:34:39.654Z,99659.42
2023-09-08T19:37:12.529Z,99658.31
2023-09-08T19:39:46.389Z,99657.52
2023-09-08T19:42:19.148Z,99656.73
2023-09-08T19:44:51.925Z,99656.14
2023-09-08T19:47:24.672Z,99654.09
2023-09-08T19:49:57.340Z,99660.74
2023-09-08T19:52:30.106Z,99656.95
2023-09-08T19:55:03.013Z,99657.00
2023-09-08T19:57:35.774Z,99651.80
2023-09-08T20:00:10.470Z,99654.37
2023-09-08T20:02:48.332Z,99654.42
2023-09-08T20:05:21.132Z,99655.57
2023-09-08T20:07:54.766Z,99659.54
2023-09-08T20:10:35.155Z,99657.85
2023-09-08T20:13:09.453Z,99659.17
2023-09-08T20:15:42.027Z,99661.39
2023-09-08T20:18:14.991Z,99661.63
2023-09-08T20:20:47.817Z,99658.71
2023-09-08T20:23:20.622Z,99661.79
2023-09-08T20:25:54.919Z,99661.88
2023-09-08T20:28:30.584Z,99664.44
2023-09-08T20:33:39.669Z,99665.16
2023-09-08T20:36:12.854Z,99662.09
2023-09-08T20:38:45.628Z,99662.88
2023-09-08T20:41:18.164Z,99665.60
2023-09-08T20:43:51.005Z,99667.11
2023-09-08T20:46:23.748Z,99666.45
2023-09-08T20:48:56.242Z,99671.27
2023-09-08T20:51:28.742Z,99669.92
2023-09-08T20:54:03.442Z,99672.83
2023-09-08T20:56:40.038Z,99672.35
2023-09-08T20:59:12.828Z,99671.52
2023-09-08T21:01:45.369Z,99671.75
2023-09-08T21:04:21.099Z,99676.05
2023-09-08T21:06:55.222Z,99674.52
2023-09-08T21:09:28.119Z,99673.32
2023-09-08T21:12:00.717Z,99671.95
2023-09-08T21:14:33.415Z,99669.20
2023-09-08T21:17:06.445Z,99667.48
2023-09-08T21:19:38.948Z,99662.77
2023-09-08T21:22:11.646Z,99663.00
2023-09-08T21:24:47.940Z,99664.83
2023-09-08T21:27:23.003Z,99666.98
2023-09-08T21:30:06.508Z,99667.23
2023-09-08T21:32:40.026Z,99665.16
2023-09-08T21:35:13.425Z,99664.66
2023-09-08T21:37:47.885Z,99658.89
2023-09-08T21:40:43.519Z,99661.79
2023-09-08T21:43:16.162Z,99656.91
2023-09-08T21:46:07.662Z,99656.60
2023-09-08T21:48:50.753Z,99661.79
2023-09-08T21:51:47.399Z,99659.91
2023-09-08T21:54:40.352Z,99659.25
2023-09-08T21:57:33.417Z,99658.43
2023-09-08T22:00:22.479Z,99665.17
2023-09-08T22:03:01.074Z,99665.73
2023-09-08T22:05:34.592Z,99663.64
2023-09-08T22:08:11.155Z,99663.27
2023-09-08T22:11:08.295Z,99664.19
2023-09-08T22:13:45.090Z,99664.39
2023-09-08T22:16:21.136Z,99664.42
2023-09-08T22:19:15.306Z,99660.93
2023-09-08T22:22:09.041Z,99661.86
2023-09-08T22:24:45.644Z,99657.81
2023-09-08T22:27:23.957Z,99655.72
2023-09-08T22:30:17.598Z,99651.69
2023-09-08T22:33:11.870Z,99654.35
2023-09-08T22:35:55.436Z,99659.84
2023-09-08T22:38:32.051Z,99662.02
2023-09-08T22:41:08.490Z,99657.80
2023-09-08T22:43:44.397Z,99654.68
2023-09-08T22:46:37.477Z,99648.89
2023-09-08T22:49:14.051Z,99652.45
2023-09-08T22:52:07.987Z,99648.42
2023-09-08T22:55:13.008Z,99646.15
2023-09-08T22:58:16.061Z,99645.48
2023-09-08T23:00:49.019Z,99649.76
2023-09-08T23:03:21.971Z,99643.27
2023-09-08T23:06:05.819Z,99646.66
2023-09-08T23:08:49.588Z,99642.79
2023-09-08T23:11:31.786Z,99641.42
2023-09-08T23:14:27.557Z,99642.70
2023-09-08T23:17:11.137Z,99643.09
2023-09-08T23:19:43.474Z,99640.81
2023-09-08T23:22:19.544Z,99640.13
2023-09-08T23:24:52.412Z,99640.65
2023-09-08T23:27:28.261Z,99641.02
2023-09-08T23:30:05.080Z,99635.05
2023-09-08T23:32:58.153Z,99632.63
2023-09-08T23:35:31.627Z,99632.98
2023-09-08T23:38:06.962Z,99632.13
2023-09-08T23:40:41.076Z,99630.39
2023-09-08T23:43:24.999Z,99628.67
2023-09-08T23:46:01.078Z,99632.75
2023-09-08T23:48:44.814Z,99629.44
2023-09-08T23:51:19.603Z,99631.76
2023-09-08T23:54:12.500Z,99634.42
2023-09-08T23:56:47.263Z,99633.21
2023-09-08T23:59:20.670Z,99631.64
